sensor_id;sensor_type;location;lat;lon;timestamp;temperature;humidity
38325;DHT22;24126;52.672;13.622;2023-06-22T00:01:13;26.00;60.30
38325;DHT22;24126;52.672;13.622;2023-06-22T00:03:40;25.90;60.40
38325;DHT22;24126;52.672;13.622;2023-06-22T00:06:07;25.90;60.60
38325;DHT22;24126;52.672;13.622;2023-06-22T00:08:34;25.90;60.70
38325;DHT22;24126;52.672;13.622;2023-06-22T00:11:01;25.90;60.60
38325;DHT22;24126;52.672;13.622;2023-06-22T00:13:28;25.90;60.80
38325;DHT22;24126;52.672;13.622;2023-06-22T00:15:55;25.80;60.70
38325;DHT22;24126;52.672;13.622;2023-06-22T00:18:22;25.80;60.90
38325;DHT22;24126;52.672;13.622;2023-06-22T00:20:56;25.80;61.00
38325;DHT22;24126;52.672;13.622;2023-06-22T00:23:24;25.80;61.30
38325;DHT22;24126;52.672;13.622;2023-06-22T00:25:51;25.70;61.30
38325;DHT22;24126;52.672;13.622;2023-06-22T00:28:18;25.70;61.40
38325;DHT22;24126;52.672;13.622;2023-06-22T00:30:45;25.70;61.50
38325;DHT22;24126;52.672;13.622;2023-06-22T00:33:13;25.70;61.60
38325;DHT22;24126;52.672;13.622;2023-06-22T00:35:41;25.70;61.60
38325;DHT22;24126;52.672;13.622;2023-06-22T00:38:08;25.70;61.70
38325;DHT22;24126;52.672;13.622;2023-06-22T00:40:35;25.70;61.80
38325;DHT22;24126;52.672;13.622;2023-06-22T00:43:03;25.60;61.90
38325;DHT22;24126;52.672;13.622;2023-06-22T00:45:30;25.60;61.90
38325;DHT22;24126;52.672;13.622;2023-06-22T00:47:57;25.60;62.00
38325;DHT22;24126;52.672;13.622;2023-06-22T00:50:28;25.50;62.00
38325;DHT22;24126;52.672;13.622;2023-06-22T00:53:00;25.50;62.20
38325;DHT22;24126;52.672;13.622;2023-06-22T00:55:27;25.50;62.30
38325;DHT22;24126;52.672;13.622;2023-06-22T00:57:54;25.40;62.40
38325;DHT22;24126;52.672;13.622;2023-06-22T01:00:23;25.40;62.50
38325;DHT22;24126;52.672;13.622;2023-06-22T01:02:51;25.40;62.70
38325;DHT22;24126;52.672;13.622;2023-06-22T01:05:19;25.30;62.70
38325;DHT22;24126;52.672;13.622;2023-06-22T01:07:56;25.30;62.80
38325;DHT22;24126;52.672;13.622;2023-06-22T01:10:32;25.30;63.10
38325;DHT22;24126;52.672;13.622;2023-06-22T01:13:02;25.30;63.30
38325;DHT22;24126;52.672;13.622;2023-06-22T01:15:32;25.30;63.40
38325;DHT22;24126;52.672;13.622;2023-06-22T01:18:00;25.30;64.10
38325;DHT22;24126;52.672;13.622;2023-06-22T01:20:30;25.20;63.60
38325;DHT22;24126;52.672;13.622;2023-06-22T01:23:02;25.20;63.60
38325;DHT22;24126;52.672;13.622;2023-06-22T01:25:56;25.20;63.60
38325;DHT22;24126;52.672;13.622;2023-06-22T01:28:33;25.10;63.70
38325;DHT22;24126;52.672;13.622;2023-06-22T01:31:02;25.10;63.90
38325;DHT22;24126;52.672;13.622;2023-06-22T01:33:32;25.00;64.00
38325;DHT22;24126;52.672;13.622;2023-06-22T01:36:01;25.00;64.20
38325;DHT22;24126;52.672;13.622;2023-06-22T01:38:28;24.90;64.40
38325;DHT22;24126;52.672;13.622;2023-06-22T01:40:57;24.90;64.60
38325;DHT22;24126;52.672;13.622;2023-06-22T01:43:25;24.80;64.80
38325;DHT22;24126;52.672;13.622;2023-06-22T01:45:55;24.70;65.10
38325;DHT22;24126;52.672;13.622;2023-06-22T01:48:22;24.60;65.30
38325;DHT22;24126;52.672;13.622;2023-06-22T01:50:52;24.60;65.60
38325;DHT22;24126;52.672;13.622;2023-06-22T01:53:23;24.50;65.80
38325;DHT22;24126;52.672;13.622;2023-06-22T01:55:51;24.50;65.90
38325;DHT22;24126;52.672;13.622;2023-06-22T01:58:19;24.50;65.90
38325;DHT22;24126;52.672;13.622;2023-06-22T02:00:56;24.50;66.10
38325;DHT22;24126;52.672;13.622;2023-06-22T02:03:31;24.40;66.20
38325;DHT22;24126;52.672;13.622;2023-06-22T02:06:04;24.30;66.40
38325;DHT22;24126;52.672;13.622;2023-06-22T02:08:37;24.30;66.70
38325;DHT22;24126;52.672;13.622;2023-06-22T02:11:04;24.30;66.80
38325;DHT22;24126;52.672;13.622;2023-06-22T02:13:32;24.20;66.90
38325;DHT22;24126;52.672;13.622;2023-06-22T02:16:00;24.10;67.00
38325;DHT22;24126;52.672;13.622;2023-06-22T02:18:27;24.10;67.30
38325;DHT22;24126;52.672;13.622;2023-06-22T02:20:54;24.10;67.50
38325;DHT22;24126;52.672;13.622;2023-06-22T02:23:22;24.00;67.50
38325;DHT22;24126;52.672;13.622;2023-06-22T02:25:49;23.90;67.70
38325;DHT22;24126;52.672;13.622;2023-06-22T02:28:17;23.90;68.00
38325;DHT22;24126;52.672;13.622;2023-06-22T02:30:45;23.90;68.10
38325;DHT22;24126;52.672;13.622;2023-06-22T02:33:12;23.90;68.10
38325;DHT22;24126;52.672;13.622;2023-06-22T02:35:39;24.00;68.10
38325;DHT22;24126;52.672;13.622;2023-06-22T02:38:11;23.90;68.10
38325;DHT22;24126;52.672;13.622;2023-06-22T02:40:38;23.90;68.20
38325;DHT22;24126;52.672;13.622;2023-06-22T02:43:05;24.00;68.20
38325;DHT22;24126;52.672;13.622;2023-06-22T02:45:32;23.90;68.20
38325;DHT22;24126;52.672;13.622;2023-06-22T02:47:59;23.90;68.30
38325;DHT22;24126;52.672;13.622;2023-06-22T02:50:26;23.80;68.40
38325;DHT22;24126;52.672;13.622;2023-06-22T02:52:54;23.80;68.70
38325;DHT22;24126;52.672;13.622;2023-06-22T02:55:21;23.70;68.90
38325;DHT22;24126;52.672;13.622;2023-06-22T02:57:54;23.70;69.00
38325;DHT22;24126;52.672;13.622;2023-06-22T03:00:23;23.70;69.00
38325;DHT22;24126;52.672;13.622;2023-06-22T03:02:56;23.70;69.00
38325;DHT22;24126;52.672;13.622;2023-06-22T03:05:23;23.60;69.10
38325;DHT22;24126;52.672;13.622;2023-06-22T03:07:50;23.60;69.20
38325;DHT22;24126;52.672;13.622;2023-06-22T03:10:18;23.60;69.30
38325;DHT22;24126;52.672;13.622;2023-06-22T03:12:45;23.60;69.30
38325;DHT22;24126;52.672;13.622;2023-06-22T03:15:12;23.60;69.50
38325;DHT22;24126;52.672;13.622;2023-06-22T03:17:40;23.60;69.40
38325;DHT22;24126;52.672;13.622;2023-06-22T03:20:08;23.60;69.50
38325;DHT22;24126;52.672;13.622;2023-06-22T03:22:37;23.60;69.50
38325;DHT22;24126;52.672;13.622;2023-06-22T03:25:05;23.60;69.60
38325;DHT22;24126;52.672;13.622;2023-06-22T03:27:37;23.70;69.60
38325;DHT22;24126;52.672;13.622;2023-06-22T03:30:07;23.70;69.50
38325;DHT22;24126;52.672;13.622;2023-06-22T03:32:35;23.80;69.50
38325;DHT22;24126;52.672;13.622;2023-06-22T03:35:02;23.80;69.40
38325;DHT22;24126;52.672;13.622;2023-06-22T03:37:30;23.80;69.40
38325;DHT22;24126;52.672;13.622;2023-06-22T03:39:57;23.80;69.60
38325;DHT22;24126;52.672;13.622;2023-06-22T03:42:25;23.80;69.60
38325;DHT22;24126;52.672;13.622;2023-06-22T03:44:52;23.80;69.40
38325;DHT22;24126;52.672;13.622;2023-06-22T03:47:19;23.80;69.40
38325;DHT22;24126;52.672;13.622;2023-06-22T03:49:46;23.80;69.50
38325;DHT22;24126;52.672;13.622;2023-06-22T03:52:14;23.80;69.60
38325;DHT22;24126;52.672;13.622;2023-06-22T03:54:41;23.80;69.80
38325;DHT22;24126;52.672;13.622;2023-06-22T03:57:08;23.90;69.70
38325;DHT22;24126;52.672;13.622;2023-06-22T03:59:35;23.90;69.70
38325;DHT22;24126;52.672;13.622;2023-06-22T04:02:02;24.00;69.80
38325;DHT22;24126;52.672;13.622;2023-06-22T04:04:29;24.10;70.00
38325;DHT22;24126;52.672;13.622;2023-06-22T04:06:57;24.30;69.70
38325;DHT22;24126;52.672;13.622;2023-06-22T04:09:24;24.60;69.30
38325;DHT22;24126;52.672;13.622;2023-06-22T04:11:51;25.00;68.60
38325;DHT22;24126;52.672;13.622;2023-06-22T04:14:18;25.30;67.70
38325;DHT22;24126;52.672;13.622;2023-06-22T04:16:45;25.80;66.70
38325;DHT22;24126;52.672;13.622;2023-06-22T04:19:12;26.20;65.60
38325;DHT22;24126;52.672;13.622;2023-06-22T04:21:42;26.70;64.50
38325;DHT22;24126;52.672;13.622;2023-06-22T04:24:10;27.20;63.20
38325;DHT22;24126;52.672;13.622;2023-06-22T04:26:37;27.60;61.80
38325;DHT22;24126;52.672;13.622;2023-06-22T04:29:07;28.10;60.60
38325;DHT22;24126;52.672;13.622;2023-06-22T04:31:35;28.40;59.30
38325;DHT22;24126;52.672;13.622;2023-06-22T04:34:03;28.80;58.00
38325;DHT22;24126;52.672;13.622;2023-06-22T04:36:35;29.00;57.40
38325;DHT22;24126;52.672;13.622;2023-06-22T04:39:07;29.10;56.80
38325;DHT22;24126;52.672;13.622;2023-06-22T04:41:38;29.10;56.30
38325;DHT22;24126;52.672;13.622;2023-06-22T04:44:09;29.00;56.30
38325;DHT22;24126;52.672;13.622;2023-06-22T04:46:36;28.90;56.60
38325;DHT22;24126;52.672;13.622;2023-06-22T04:49:05;28.70;56.60
38325;DHT22;24126;52.672;13.622;2023-06-22T04:51:41;28.50;56.90
38325;DHT22;24126;52.672;13.622;2023-06-22T04:54:09;28.30;57.20
38325;DHT22;24126;52.672;13.622;2023-06-22T04:56:38;28.10;57.60
38325;DHT22;24126;52.672;13.622;2023-06-22T04:59:06;27.90;57.90
38325;DHT22;24126;52.672;13.622;2023-06-22T05:01:33;27.70;58.10
38325;DHT22;24126;52.672;13.622;2023-06-22T05:04:01;27.50;58.50
38325;DHT22;24126;52.672;13.622;2023-06-22T05:06:29;27.30;59.60
38325;DHT22;24126;52.672;13.622;2023-06-22T05:08:56;27.20;60.20
38325;DHT22;24126;52.672;13.622;2023-06-22T05:11:24;27.20;60.40
38325;DHT22;24126;52.672;13.622;2023-06-22T05:13:52;27.20;59.80
38325;DHT22;24126;52.672;13.622;2023-06-22T05:16:20;27.30;61.10
38325;DHT22;24126;52.672;13.622;2023-06-22T05:18:50;27.40;60.00
38325;DHT22;24126;52.672;13.622;2023-06-22T05:21:17;27.40;59.10
38325;DHT22;24126;52.672;13.622;2023-06-22T05:23:45;27.40;58.50
38325;DHT22;24126;52.672;13.622;2023-06-22T05:26:12;27.40;58.70
38325;DHT22;24126;52.672;13.622;2023-06-22T05:28:39;27.50;58.80
38325;DHT22;24126;52.672;13.622;2023-06-22T05:31:06;27.50;58.70
38325;DHT22;24126;52.672;13.622;2023-06-22T05:33:33;27.60;57.70
38325;DHT22;24126;52.672;13.622;2023-06-22T05:36:00;27.70;56.90
38325;DHT22;24126;52.672;13.622;2023-06-22T05:38:27;27.70;56.10
38325;DHT22;24126;52.672;13.622;2023-06-22T05:40:54;27.60;56.20
38325;DHT22;24126;52.672;13.622;2023-06-22T05:43:21;27.70;56.40
38325;DHT22;24126;52.672;13.622;2023-06-22T05:45:48;27.70;55.90
38325;DHT22;24126;52.672;13.622;2023-06-22T05:48:15;27.70;55.20
38325;DHT22;24126;52.672;13.622;2023-06-22T05:50:42;27.70;55.50
38325;DHT22;24126;52.672;13.622;2023-06-22T05:53:09;27.60;55.70
38325;DHT22;24126;52.672;13.622;2023-06-22T05:55:36;27.60;55.80
38325;DHT22;24126;52.672;13.622;2023-06-22T05:58:03;27.60;55.40
38325;DHT22;24126;52.672;13.622;2023-06-22T06:00:30;27.60;55.70
38325;DHT22;24126;52.672;13.622;2023-06-22T06:02:57;27.50;56.00
38325;DHT22;24126;52.672;13.622;2023-06-22T06:05:29;27.50;56.00
38325;DHT22;24126;52.672;13.622;2023-06-22T06:07:56;27.50;56.20
38325;DHT22;24126;52.672;13.622;2023-06-22T06:10:23;27.60;55.90
38325;DHT22;24126;52.672;13.622;2023-06-22T06:12:51;27.60;55.50
38325;DHT22;24126;52.672;13.622;2023-06-22T06:15:18;27.60;55.50
38325;DHT22;24126;52.672;13.622;2023-06-22T06:17:48;27.60;55.30
38325;DHT22;24126;52.672;13.622;2023-06-22T06:20:17;27.70;55.50
38325;DHT22;24126;52.672;13.622;2023-06-22T06:22:45;27.70;55.30
38325;DHT22;24126;52.672;13.622;2023-06-22T06:25:12;27.90;55.90
38325;DHT22;24126;52.672;13.622;2023-06-22T06:27:51;28.00;55.80
38325;DHT22;24126;52.672;13.622;2023-06-22T06:30:20;28.20;55.40
38325;DHT22;24126;52.672;13.622;2023-06-22T06:32:47;28.40;54.60
38325;DHT22;24126;52.672;13.622;2023-06-22T06:35:15;28.50;54.40
38325;DHT22;24126;52.672;13.622;2023-06-22T06:37:43;28.60;53.80
38325;DHT22;24126;52.672;13.622;2023-06-22T06:40:11;28.60;53.60
38325;DHT22;24126;52.672;13.622;2023-06-22T06:42:46;28.70;53.20
38325;DHT22;24126;52.672;13.622;2023-06-22T06:45:17;28.70;53.10
38325;DHT22;24126;52.672;13.622;2023-06-22T06:47:45;28.80;53.60
38325;DHT22;24126;52.672;13.622;2023-06-22T06:50:12;28.90;52.50
38325;DHT22;24126;52.672;13.622;2023-06-22T06:52:39;28.90;51.90
38325;DHT22;24126;52.672;13.622;2023-06-22T06:55:07;29.00;53.00
38325;DHT22;24126;52.672;13.622;2023-06-22T06:57:36;29.10;52.40
38325;DHT22;24126;52.672;13.622;2023-06-22T07:00:04;29.30;51.90
38325;DHT22;24126;52.672;13.622;2023-06-22T07:02:35;29.40;51.70
38325;DHT22;24126;52.672;13.622;2023-06-22T07:05:02;29.60;51.40
38325;DHT22;24126;52.672;13.622;2023-06-22T07:07:30;29.70;50.80
38325;DHT22;24126;52.672;13.622;2023-06-22T07:09:57;29.90;50.60
38325;DHT22;24126;52.672;13.622;2023-06-22T07:12:24;29.90;49.90
38325;DHT22;24126;52.672;13.622;2023-06-22T07:14:51;29.90;49.20
38325;DHT22;24126;52.672;13.622;2023-06-22T07:17:19;30.00;48.90
38325;DHT22;24126;52.672;13.622;2023-06-22T07:19:46;30.00;49.10
38325;DHT22;24126;52.672;13.622;2023-06-22T07:22:13;30.10;48.70
38325;DHT22;24126;52.672;13.622;2023-06-22T07:24:40;30.20;48.40
38325;DHT22;24126;52.672;13.622;2023-06-22T07:27:07;30.20;47.80
38325;DHT22;24126;52.672;13.622;2023-06-22T07:29:36;30.40;47.40
38325;DHT22;24126;52.672;13.622;2023-06-22T07:32:05;30.60;46.90
38325;DHT22;24126;52.672;13.622;2023-06-22T07:34:33;30.60;45.70
38325;DHT22;24126;52.672;13.622;2023-06-22T07:37:00;30.70;45.50
38325;DHT22;24126;52.672;13.622;2023-06-22T07:39:27;30.70;46.10
38325;DHT22;24126;52.672;13.622;2023-06-22T07:41:54;30.90;45.90
38325;DHT22;24126;52.672;13.622;2023-06-22T07:44:21;30.90;45.10
38325;DHT22;24126;52.672;13.622;2023-06-22T07:46:48;31.00;44.70
38325;DHT22;24126;52.672;13.622;2023-06-22T07:49:16;31.10;45.10
38325;DHT22;24126;52.672;13.622;2023-06-22T07:51:43;31.10;44.50
38325;DHT22;24126;52.672;13.622;2023-06-22T07:54:10;31.10;44.40
38325;DHT22;24126;52.672;13.622;2023-06-22T07:56:37;31.20;44.30
38325;DHT22;24126;52.672;13.622;2023-06-22T07:59:05;31.20;44.20
38325;DHT22;24126;52.672;13.622;2023-06-22T08:01:32;31.20;43.80
38325;DHT22;24126;52.672;13.622;2023-06-22T08:03:59;31.20;44.50
38325;DHT22;24126;52.672;13.622;2023-06-22T08:06:26;31.20;44.60
38325;DHT22;24126;52.672;13.622;2023-06-22T08:08:53;31.30;45.20
38325;DHT22;24126;52.672;13.622;2023-06-22T08:11:22;31.30;44.10
38325;DHT22;24126;52.672;13.622;2023-06-22T08:13:51;31.40;44.00
38325;DHT22;24126;52.672;13.622;2023-06-22T08:16:18;31.50;43.40
38325;DHT22;24126;52.672;13.622;2023-06-22T08:18:45;31.50;44.30
38325;DHT22;24126;52.672;13.622;2023-06-22T08:21:12;31.50;44.20
38325;DHT22;24126;52.672;13.622;2023-06-22T08:23:39;31.70;44.30
38325;DHT22;24126;52.672;13.622;2023-06-22T08:26:06;31.70;43.50
38325;DHT22;24126;52.672;13.622;2023-06-22T08:28:33;31.80;44.00
38325;DHT22;24126;52.672;13.622;2023-06-22T08:31:01;31.70;42.90
38325;DHT22;24126;52.672;13.622;2023-06-22T08:33:28;31.70;41.90
38325;DHT22;24126;52.672;13.622;2023-06-22T08:35:57;31.50;42.20
38325;DHT22;24126;52.672;13.622;2023-06-22T08:38:25;31.40;42.40
38325;DHT22;24126;52.672;13.622;2023-06-22T08:40:52;31.30;42.90
38325;DHT22;24126;52.672;13.622;2023-06-22T08:43:19;31.30;42.50
38325;DHT22;24126;52.672;13.622;2023-06-22T08:45:46;31.30;42.40
38325;DHT22;24126;52.672;13.622;2023-06-22T08:48:13;31.20;42.80
38325;DHT22;24126;52.672;13.622;2023-06-22T08:50:40;31.10;42.40
38325;DHT22;24126;52.672;13.622;2023-06-22T08:53:07;31.00;42.50
38325;DHT22;24126;52.672;13.622;2023-06-22T08:55:34;30.90;42.20
38325;DHT22;24126;52.672;13.622;2023-06-22T08:58:01;30.90;43.20
38325;DHT22;24126;52.672;13.622;2023-06-22T09:00:29;31.00;43.40
38325;DHT22;24126;52.672;13.622;2023-06-22T09:02:58;31.10;43.30
38325;DHT22;24126;52.672;13.622;2023-06-22T09:05:25;31.10;42.60
38325;DHT22;24126;52.672;13.622;2023-06-22T09:07:52;31.10;42.20
38325;DHT22;24126;52.672;13.622;2023-06-22T09:10:21;31.20;42.70
38325;DHT22;24126;52.672;13.622;2023-06-22T09:12:48;31.20;42.50
38325;DHT22;24126;52.672;13.622;2023-06-22T09:15:15;31.20;42.30
38325;DHT22;24126;52.672;13.622;2023-06-22T09:17:42;31.20;42.20
38325;DHT22;24126;52.672;13.622;2023-06-22T09:20:12;31.20;42.60
38325;DHT22;24126;52.672;13.622;2023-06-22T09:22:39;31.30;42.70
38325;DHT22;24126;52.672;13.622;2023-06-22T09:25:06;31.50;42.40
38325;DHT22;24126;52.672;13.622;2023-06-22T09:27:33;31.50;41.70
38325;DHT22;24126;52.672;13.622;2023-06-22T09:30:00;31.60;41.80
38325;DHT22;24126;52.672;13.622;2023-06-22T09:32:29;31.70;42.60
38325;DHT22;24126;52.672;13.622;2023-06-22T09:34:56;31.80;42.00
38325;DHT22;24126;52.672;13.622;2023-06-22T09:37:23;32.00;42.00
38325;DHT22;24126;52.672;13.622;2023-06-22T09:39:50;32.10;41.40
38325;DHT22;24126;52.672;13.622;2023-06-22T09:42:17;32.20;40.60
38325;DHT22;24126;52.672;13.622;2023-06-22T09:44:44;32.40;40.60
38325;DHT22;24126;52.672;13.622;2023-06-22T09:47:11;32.50;40.80
38325;DHT22;24126;52.672;13.622;2023-06-22T09:49:39;32.50;40.50
38325;DHT22;24126;52.672;13.622;2023-06-22T09:52:06;32.50;40.80
38325;DHT22;24126;52.672;13.622;2023-06-22T09:54:33;32.50;40.30
38325;DHT22;24126;52.672;13.622;2023-06-22T09:57:00;32.50;39.60
38325;DHT22;24126;52.672;13.622;2023-06-22T09:59:27;32.50;39.40
38325;DHT22;24126;52.672;13.622;2023-06-22T10:01:54;32.40;39.50
38325;DHT22;24126;52.672;13.622;2023-06-22T10:04:22;32.50;40.30
38325;DHT22;24126;52.672;13.622;2023-06-22T10:06:49;32.60;40.90
38325;DHT22;24126;52.672;13.622;2023-06-22T10:09:16;32.90;40.40
38325;DHT22;24126;52.672;13.622;2023-06-22T10:11:43;33.20;40.50
38325;DHT22;24126;52.672;13.622;2023-06-22T10:14:10;33.40;39.50
38325;DHT22;24126;52.672;13.622;2023-06-22T10:16:37;33.70;38.50
38325;DHT22;24126;52.672;13.622;2023-06-22T10:19:04;33.80;38.20
38325;DHT22;24126;52.672;13.622;2023-06-22T10:21:31;33.90;38.40
38325;DHT22;24126;52.672;13.622;2023-06-22T10:23:59;34.00;37.40
38325;DHT22;24126;52.672;13.622;2023-06-22T10:26:32;34.00;38.70
38325;DHT22;24126;52.672;13.622;2023-06-22T10:28:59;34.20;37.70
38325;DHT22;24126;52.672;13.622;2023-06-22T10:31:26;34.30;37.80
38325;DHT22;24126;52.672;13.622;2023-06-22T10:33:54;34.30;37.30
38325;DHT22;24126;52.672;13.622;2023-06-22T10:36:21;34.40;37.40
38325;DHT22;24126;52.672;13.622;2023-06-22T10:38:49;34.60;37.30
38325;DHT22;24126;52.672;13.622;2023-06-22T10:41:16;34.70;37.40
38325;DHT22;24126;52.672;13.622;2023-06-22T10:43:43;34.80;37.10
38325;DHT22;24126;52.672;13.622;2023-06-22T10:46:10;35.00;37.50
38325;DHT22;24126;52.672;13.622;2023-06-22T10:48:37;35.10;37.10
38325;DHT22;24126;52.672;13.622;2023-06-22T10:51:04;35.10;36.20
38325;DHT22;24126;52.672;13.622;2023-06-22T10:53:31;35.20;35.90
38325;DHT22;24126;52.672;13.622;2023-06-22T10:55:58;35.10;36.00
38325;DHT22;24126;52.672;13.622;2023-06-22T10:58:26;35.20;36.10
38325;DHT22;24126;52.672;13.622;2023-06-22T11:00:53;35.30;35.90
38325;DHT22;24126;52.672;13.622;2023-06-22T11:03:20;35.30;36.10
38325;DHT22;24126;52.672;13.622;2023-06-22T11:05:47;35.30;35.50
38325;DHT22;24126;52.672;13.622;2023-06-22T11:08:14;35.30;35.40
38325;DHT22;24126;52.672;13.622;2023-06-22T11:10:41;35.20;36.10
38325;DHT22;24126;52.672;13.622;2023-06-22T11:13:10;35.10;35.50
38325;DHT22;24126;52.672;13.622;2023-06-22T11:15:38;35.00;35.60
38325;DHT22;24126;52.672;13.622;2023-06-22T11:18:05;34.90;35.80
38325;DHT22;24126;52.672;13.622;2023-06-22T11:20:33;34.90;36.00
38325;DHT22;24126;52.672;13.622;2023-06-22T11:23:04;34.90;36.00
38325;DHT22;24126;52.672;13.622;2023-06-22T11:25:32;34.90;35.40
38325;DHT22;24126;52.672;13.622;2023-06-22T11:28:04;35.00;34.80
38325;DHT22;24126;52.672;13.622;2023-06-22T11:30:31;35.00;35.40
38325;DHT22;24126;52.672;13.622;2023-06-22T11:32:58;35.10;35.70
38325;DHT22;24126;52.672;13.622;2023-06-22T11:35:25;35.20;35.50
38325;DHT22;24126;52.672;13.622;2023-06-22T11:37:52;35.30;35.10
38325;DHT22;24126;52.672;13.622;2023-06-22T11:40:19;35.40;35.00
38325;DHT22;24126;52.672;13.622;2023-06-22T11:42:47;35.30;34.70
38325;DHT22;24126;52.672;13.622;2023-06-22T11:45:14;35.30;35.70
38325;DHT22;24126;52.672;13.622;2023-06-22T11:47:42;35.20;35.90
38325;DHT22;24126;52.672;13.622;2023-06-22T11:50:09;35.30;36.30
38325;DHT22;24126;52.672;13.622;2023-06-22T11:52:36;35.30;35.50
38325;DHT22;24126;52.672;13.622;2023-06-22T11:55:03;35.10;36.20
38325;DHT22;24126;52.672;13.622;2023-06-22T11:57:35;35.00;36.50
38325;DHT22;24126;52.672;13.622;2023-06-22T12:00:03;34.90;36.30
38325;DHT22;24126;52.672;13.622;2023-06-22T12:02:39;35.00;36.10
38325;DHT22;24126;52.672;13.622;2023-06-22T12:05:06;35.10;36.00
38325;DHT22;24126;52.672;13.622;2023-06-22T12:07:33;35.30;35.90
38325;DHT22;24126;52.672;13.622;2023-06-22T12:10:01;35.40;35.90
38325;DHT22;24126;52.672;13.622;2023-06-22T12:12:28;35.40;35.30
38325;DHT22;24126;52.672;13.622;2023-06-22T12:14:55;35.30;36.10
38325;DHT22;24126;52.672;13.622;2023-06-22T12:17:29;35.20;36.00
38325;DHT22;24126;52.672;13.622;2023-06-22T12:19:58;35.10;36.30
38325;DHT22;24126;52.672;13.622;2023-06-22T12:22:26;35.20;35.40
38325;DHT22;24126;52.672;13.622;2023-06-22T12:24:53;35.10;36.30
38325;DHT22;24126;52.672;13.622;2023-06-22T12:27:25;34.90;36.50
38325;DHT22;24126;52.672;13.622;2023-06-22T12:30:15;34.80;36.20
38325;DHT22;24126;52.672;13.622;2023-06-22T12:32:42;34.80;36.10
38325;DHT22;24126;52.672;13.622;2023-06-22T12:35:09;35.00;36.50
38325;DHT22;24126;52.672;13.622;2023-06-22T12:37:40;35.10;35.80
38325;DHT22;24126;52.672;13.622;2023-06-22T12:40:08;35.20;36.20
38325;DHT22;24126;52.672;13.622;2023-06-22T12:42:35;35.20;35.60
38325;DHT22;24126;52.672;13.622;2023-06-22T12:45:02;35.10;36.00
38325;DHT22;24126;52.672;13.622;2023-06-22T12:47:30;35.10;36.10
38325;DHT22;24126;52.672;13.622;2023-06-22T12:49:57;35.10;36.30
38325;DHT22;24126;52.672;13.622;2023-06-22T12:52:24;35.10;36.10
38325;DHT22;24126;52.672;13.622;2023-06-22T12:54:52;35.20;36.50
38325;DHT22;24126;52.672;13.622;2023-06-22T12:57:20;35.20;36.20
38325;DHT22;24126;52.672;13.622;2023-06-22T12:59:47;35.20;35.90
38325;DHT22;24126;52.672;13.622;2023-06-22T13:02:14;35.20;35.70
38325;DHT22;24126;52.672;13.622;2023-06-22T13:04:42;35.10;36.10
38325;DHT22;24126;52.672;13.622;2023-06-22T13:07:09;35.00;36.20
38325;DHT22;24126;52.672;13.622;2023-06-22T13:09:36;35.00;36.10
38325;DHT22;24126;52.672;13.622;2023-06-22T13:12:03;34.90;35.90
38325;DHT22;24126;52.672;13.622;2023-06-22T13:14:31;34.90;36.10
38325;DHT22;24126;52.672;13.622;2023-06-22T13:16:58;35.00;37.20
38325;DHT22;24126;52.672;13.622;2023-06-22T13:19:25;35.10;36.40
38325;DHT22;24126;52.672;13.622;2023-06-22T13:21:54;35.10;36.00
38325;DHT22;24126;52.672;13.622;2023-06-22T13:24:21;35.00;36.00
38325;DHT22;24126;52.672;13.622;2023-06-22T13:26:48;34.90;36.20
38325;DHT22;24126;52.672;13.622;2023-06-22T13:29:15;34.80;35.90
38325;DHT22;24126;52.672;13.622;2023-06-22T13:31:42;34.70;36.30
38325;DHT22;24126;52.672;13.622;2023-06-22T13:34:09;34.70;36.80
38325;DHT22;24126;52.672;13.622;2023-06-22T13:36:36;34.70;36.90
38325;DHT22;24126;52.672;13.622;2023-06-22T13:39:03;34.70;37.20
38325;DHT22;24126;52.672;13.622;2023-06-22T13:41:30;34.70;36.50
38325;DHT22;24126;52.672;13.622;2023-06-22T13:43:58;34.70;36.60
38325;DHT22;24126;52.672;13.622;2023-06-22T13:46:25;34.60;37.10
38325;DHT22;24126;52.672;13.622;2023-06-22T13:48:52;34.50;37.00
38325;DHT22;24126;52.672;13.622;2023-06-22T13:51:19;34.40;36.90
38325;DHT22;24126;52.672;13.622;2023-06-22T13:53:46;34.40;37.50
38325;DHT22;24126;52.672;13.622;2023-06-22T13:56:13;34.40;37.20
38325;DHT22;24126;52.672;13.622;2023-06-22T13:58:40;34.40;37.80
38325;DHT22;24126;52.672;13.622;2023-06-22T14:01:08;34.40;37.30
38325;DHT22;24126;52.672;13.622;2023-06-22T14:03:35;34.40;37.50
38325;DHT22;24126;52.672;13.622;2023-06-22T14:06:02;34.30;37.60
38325;DHT22;24126;52.672;13.622;2023-06-22T14:08:30;34.10;37.50
38325;DHT22;24126;52.672;13.622;2023-06-22T14:10:57;34.00;37.50
38325;DHT22;24126;52.672;13.622;2023-06-22T14:13:24;33.90;38.80
38325;DHT22;24126;52.672;13.622;2023-06-22T14:15:51;33.90;38.20
38325;DHT22;24126;52.672;13.622;2023-06-22T14:18:19;33.90;37.70
38325;DHT22;24126;52.672;13.622;2023-06-22T14:20:48;33.80;37.80
38325;DHT22;24126;52.672;13.622;2023-06-22T14:23:15;33.80;38.20
38325;DHT22;24126;52.672;13.622;2023-06-22T14:25:42;33.80;37.70
38325;DHT22;24126;52.672;13.622;2023-06-22T14:28:10;33.70;38.00
38325;DHT22;24126;52.672;13.622;2023-06-22T14:30:37;33.70;38.30
38325;DHT22;24126;52.672;13.622;2023-06-22T14:33:04;33.70;38.20
38325;DHT22;24126;52.672;13.622;2023-06-22T14:35:31;33.80;38.20
38325;DHT22;24126;52.672;13.622;2023-06-22T14:37:58;33.80;38.00
38325;DHT22;24126;52.672;13.622;2023-06-22T14:40:25;33.80;38.40
38325;DHT22;24126;52.672;13.622;2023-06-22T14:42:53;33.70;37.60
38325;DHT22;24126;52.672;13.622;2023-06-22T14:45:25;33.60;37.90
38325;DHT22;24126;52.672;13.622;2023-06-22T14:47:52;33.60;38.00
38325;DHT22;24126;52.672;13.622;2023-06-22T14:50:19;33.50;38.20
38325;DHT22;24126;52.672;13.622;2023-06-22T14:52:47;33.40;38.30
38325;DHT22;24126;52.672;13.622;2023-06-22T14:55:14;33.40;38.40
38325;DHT22;24126;52.672;13.622;2023-06-22T14:57:41;33.40;39.00
38325;DHT22;24126;52.672;13.622;2023-06-22T15:00:08;33.30;39.40
38325;DHT22;24126;52.672;13.622;2023-06-22T15:02:35;33.30;38.90
38325;DHT22;24126;52.672;13.622;2023-06-22T15:05:02;33.20;38.80
38325;DHT22;24126;52.672;13.622;2023-06-22T15:07:29;33.10;38.90
38325;DHT22;24126;52.672;13.622;2023-06-22T15:09:56;33.10;39.20
38325;DHT22;24126;52.672;13.622;2023-06-22T15:12:23;33.00;39.00
38325;DHT22;24126;52.672;13.622;2023-06-22T15:14:50;33.00;38.90
38325;DHT22;24126;52.672;13.622;2023-06-22T15:17:18;32.90;38.70
38325;DHT22;24126;52.672;13.622;2023-06-22T15:19:45;32.90;38.80